Time;durP1;ratioP1;P1;durP2;ratioP2;P2;SDS_P1;SDS_P2;PMS_P1;PMS_P2;Temp;Humidity;BMP_temperature;BMP_pressure;BME280_temperature;BME280_humidity;BME280_pressure;Samples;Min_cycle;Max_cycle;Signal;HPM_P1;HPM_P2
2022/02/03 00:01:32;;;;;;;8.88;2.15;;;9.80;96.50;;;;;;5021551;28;20425;-58
2022/02/03 00:04:08;;;;;;;6.90;1.48;;;9.80;96.50;;;;;;5021856;28;20068;-58
2022/02/03 00:06:53;;;;;;;10.05;1.73;;;9.80;96.40;;;;;;5025970;28;20052;-58
2022/02/03 00:25:31;;;;;;;16.67;2.33;;;9.90;96.60;;;;;;5033302;28;20529;-58
2022/02/03 00:30:35;;;;;;;5.70;1.63;;;9.80;96.40;;;;;;5032252;28;20042;-57
2022/02/03 00:37:05;;;;;;;9.68;1.98;;;9.80;96.60;;;;;;5037866;28;20068;-57
2022/02/03 00:52:36;;;;;;;10.02;2.72;;;9.80;96.70;;;;;;5027987;28;20485;-58
2022/02/03 00:55:06;;;;;;;13.27;2.77;;;9.90;96.70;;;;;;5030723;28;20040;-58
2022/02/03 00:57:37;;;;;;;7.65;2.15;;;9.80;96.40;;;;;;5044801;28;20281;-59
2022/02/03 01:00:11;;;;;;;11.23;2.75;;;9.80;96.60;;;;;;5023682;28;20053;-58
2022/02/03 01:02:51;;;;;;;9.85;1.95;;;9.90;96.80;;;;;;5038007;28;20132;-58
2022/02/03 01:05:18;;;;;;;9.85;1.75;;;9.80;96.80;;;;;;5035816;28;20083;-58
2022/02/03 01:07:47;;;;;;;17.23;2.35;;;9.90;96.90;;;;;;5037833;28;20111;-56
2022/02/03 01:10:19;;;;;;;8.00;2.17;;;9.90;96.90;;;;;;5038263;28;20057;-57
2022/02/03 01:15:38;;;;;;;12.40;2.45;;;9.90;96.80;;;;;;5020352;28;20053;-58
2022/02/03 01:18:59;;;;;;;8.18;2.22;;;9.90;96.90;;;;;;5040084;28;20097;-57
2022/02/03 01:34:58;;;;;;;7.93;2.30;;;9.80;97.10;;;;;;5003276;28;20053;-57
2022/02/03 01:45:37;;;;;;;12.07;3.00;;;9.70;97.50;;;;;;5031199;28;20052;-57
2022/02/03 01:48:18;;;;;;;14.43;2.45;;;9.60;97.50;;;;;;5036988;28;20068;-57
2022/02/03 01:53:33;;;;;;;9.70;2.67;;;9.60;97.60;;;;;;5046020;28;20064;-60
2022/02/03 01:56:05;;;;;;;9.63;2.70;;;9.60;97.60;;;;;;5021369;28;20089;-58
2022/02/03 01:58:45;;;;;;;14.13;2.30;;;9.60;97.70;;;;;;5040771;28;20056;-58
2022/02/03 02:01:31;;;;;;;16.38;2.97;;;9.60;97.90;;;;;;5022060;28;20049;-58
2022/02/03 02:04:11;;;;;;;12.25;2.28;;;9.60;98.10;;;;;;5031407;28;20096;-59
2022/02/03 02:06:38;;;;;;;12.95;3.15;;;9.50;98.00;;;;;;5038298;28;20040;-58
2022/02/03 02:09:08;;;;;;;14.88;3.67;;;9.50;98.10;;;;;;5034089;28;20191;-58
2022/02/03 02:12:41;;;;;;;14.40;3.50;;;9.50;98.10;;;;;;5014180;28;20118;-58
2022/02/03 02:39:23;;;;;;;19.10;4.47;;;9.50;98.40;;;;;;5033319;28;20048;-58
2022/02/03 02:45:06;;;;;;;12.82;3.13;;;9.50;98.30;;;;;;5036235;28;20076;-58
2022/02/03 02:47:57;;;;;;;8.90;2.13;;;9.60;98.30;;;;;;5032348;28;20107;-58
2022/02/03 02:50:38;;;;;;;11.18;2.45;;;9.50;98.40;;;;;;5022864;28;20045;-58
2022/02/03 02:53:23;;;;;;;14.02;2.75;;;9.50;98.30;;;;;;5031925;28;20053;-58
2022/02/03 03:04:10;;;;;;;10.47;2.00;;;9.50;98.40;;;;;;5017175;28;20481;-58
2022/02/03 03:36:56;;;;;;;9.23;2.17;;;9.20;98.90;;;;;;5018600;28;20477;-58
2022/02/03 03:39:30;;;;;;;14.52;1.98;;;9.20;98.90;;;;;;5028730;28;20132;-58
2022/02/03 03:41:59;;;;;;;8.52;2.00;;;9.10;98.90;;;;;;5025290;28;20077;-58
2022/02/03 03:44:29;;;;;;;15.00;3.03;;;9.10;98.90;;;;;;5009546;28;20080;-58
2022/02/03 03:47:01;;;;;;;13.10;1.77;;;9.10;98.90;;;;;;5020878;28;20091;-58
2022/02/03 03:49:39;;;;;;;12.50;2.15;;;9.10;99.10;;;;;;5017975;28;20504;-56
2022/02/03 03:52:10;;;;;;;6.90;1.70;;;9.10;99.20;;;;;;5041974;28;20135;-58
2022/02/03 03:54:43;;;;;;;8.05;1.55;;;9.00;99.10;;;;;;5037746;28;20475;-58
2022/02/03 03:57:19;;;;;;;15.10;3.67;;;9.00;99.10;;;;;;5027235;28;20136;-58
2022/02/03 04:29:17;;;;;;;9.25;2.28;;;9.00;99.20;;;;;;5013000;28;20042;-56
2022/02/03 04:32:18;;;;;;;11.60;2.00;;;8.90;99.40;;;;;;5015041;28;20061;-58
2022/02/03 04:57:11;;;;;;;11.82;1.88;;;8.90;99.30;;;;;;5030885;28;20107;-58
2022/02/03 04:59:59;;;;;;;5.82;1.35;;;8.90;99.20;;;;;;5026286;28;20066;-57
2022/02/03 05:05:16;;;;;;;5.90;1.17;;;8.80;99.40;;;;;;5036453;28;20487;-57
2022/02/03 05:10:46;;;;;;;12.25;2.33;;;8.70;99.60;;;;;;5035609;28;20087;-58
2022/02/03 05:25:25;;;;;;;7.35;1.23;;;8.60;99.90;;;;;;5037747;28;20523;-57
2022/02/03 05:43:20;;;;;;;11.45;1.25;;;8.50;99.90;;;;;;5018717;28;20077;-58
2022/02/03 05:48:55;;;;;;;2.80;1.30;;;8.40;99.90;;;;;;5046987;28;20442;-58
2022/02/03 06:07:29;;;;;;;3.65;1.08;;;8.30;99.90;;;;;;5028362;28;20162;-55
2022/02/03 06:15:16;;;;;;;7.82;1.13;;;8.30;99.90;;;;;;5001464;28;20080;-58
2022/02/03 06:23:46;;;;;;;5.80;1.10;;;8.20;99.90;;;;;;5036483;28;20084;-58
2022/02/03 06:29:04;;;;;;;4.88;0.90;;;8.20;99.90;;;;;;5029544;28;20076;-58
2022/02/03 06:31:37;;;;;;;3.90;1.30;;;8.20;99.90;;;;;;5040868;28;20080;-58
2022/02/03 06:34:04;;;;;;;2.80;1.00;;;8.20;99.90;;;;;;5021096;28;20048;-56
2022/02/03 06:36:31;;;;;;;4.72;1.13;;;8.20;99.90;;;;;;5021606;28;20475;-58
2022/02/03 06:38:58;;;;;;;7.63;1.45;;;8.20;99.90;;;;;;5018074;28;20081;-57
2022/02/03 06:41:24;;;;;;;6.47;1.40;;;8.20;99.90;;;;;;5037388;28;20492;-57
2022/02/03 06:43:51;;;;;;;6.32;1.85;;;8.20;99.90;;;;;;5036750;28;20107;-57
2022/02/03 06:46:18;;;;;;;5.70;2.00;;;8.20;99.90;;;;;;5034357;28;20045;-56
2022/02/03 06:48:53;;;;;;;3.72;1.02;;;8.20;99.90;;;;;;5039319;28;20099;-57
2022/02/03 06:51:31;;;;;;;5.68;1.60;;;8.10;99.90;;;;;;5020168;28;20556;-55
2022/02/03 06:54:15;;;;;;;5.82;1.02;;;8.10;99.90;;;;;;5038396;28;20049;-58
2022/02/03 06:56:50;;;;;;;3.40;0.82;;;8.10;99.90;;;;;;5027780;28;20826;-57
2022/02/03 06:59:22;;;;;;;6.25;0.90;;;8.20;99.90;;;;;;5035544;28;20053;-58
2022/02/03 07:01:49;;;;;;;3.95;1.10;;;8.20;99.90;;;;;;5044928;28;20088;-64
2022/02/03 07:04:24;;;;;;;4.13;0.90;;;8.20;99.90;;;;;;5038349;28;20084;-56
2022/02/03 07:06:51;;;;;;;2.35;1.38;;;8.10;99.90;;;;;;5027361;28;20095;-55
2022/02/03 07:09:17;;;;;;;4.00;1.42;;;8.10;99.90;;;;;;5034115;28;20084;-57
2022/02/03 07:11:44;;;;;;;2.33;0.75;;;8.10;99.90;;;;;;5032568;28;20142;-58
2022/02/03 07:14:12;;;;;;;2.83;0.90;;;8.10;99.90;;;;;;5038623;28;20508;-58
2022/02/03 07:16:48;;;;;;;3.20;2.58;;;8.10;99.90;;;;;;5038303;28;20077;-58
2022/02/03 07:19:15;;;;;;;1.50;0.73;;;8.10;99.90;;;;;;5030318;28;20050;-58
2022/02/03 07:21:42;;;;;;;3.90;0.98;;;8.10;99.90;;;;;;5021899;28;20143;-56
2022/02/03 07:24:09;;;;;;;5.55;1.40;;;8.10;99.90;;;;;;5041323;28;20194;-59
2022/02/03 07:26:36;;;;;;;6.25;1.10;;;8.10;99.90;;;;;;5040043;28;20110;-59
2022/02/03 07:29:03;;;;;;;2.13;0.80;;;8.10;99.90;;;;;;5041194;28;20106;-57
2022/02/03 07:31:30;;;;;;;3.20;0.90;;;8.00;99.90;;;;;;5034977;28;20049;-56
2022/02/03 07:34:03;;;;;;;5.22;0.90;;;8.00;99.90;;;;;;5015654;28;20053;-57
2022/02/03 07:36:30;;;;;;;3.75;0.85;;;8.00;99.90;;;;;;5034093;28;20045;-58
2022/02/03 07:38:59;;;;;;;3.60;1.10;;;8.00;99.90;;;;;;5035842;28;20132;-60
2022/02/03 07:41:26;;;;;;;1.90;0.70;;;8.00;99.90;;;;;;5040648;28;20071;-60
2022/02/03 07:43:53;;;;;;;2.47;0.82;;;8.00;99.90;;;;;;5039078;28;20037;-58
2022/02/03 07:46:20;;;;;;;4.63;1.00;;;8.00;99.90;;;;;;5040443;28;20052;-58
2022/02/03 07:48:49;;;;;;;4.72;0.95;;;8.00;99.90;;;;;;5040506;28;20053;-59
2022/02/03 07:51:16;;;;;;;4.50;1.42;;;8.00;99.90;;;;;;5023906;28;20181;-54
2022/02/03 07:53:43;;;;;;;6.53;1.15;;;8.00;99.90;;;;;;5041911;28;20106;-57
2022/02/03 07:56:10;;;;;;;4.60;0.95;;;8.00;99.90;;;;;;5043671;28;20146;-57
2022/02/03 07:58:37;;;;;;;4.22;0.98;;;8.00;99.90;;;;;;5043944;28;20147;-58
2022/02/03 08:01:04;;;;;;;4.38;0.88;;;8.10;99.90;;;;;;5038536;28;20151;-58
2022/02/03 08:03:31;;;;;;;3.40;0.63;;;8.10;99.90;;;;;;5022575;28;20049;-56
2022/02/03 08:06:03;;;;;;;1.67;0.70;;;8.10;99.90;;;;;;5022558;28;20126;-58
2022/02/03 08:08:38;;;;;;;2.70;0.88;;;8.10;99.90;;;;;;5042071;28;20134;-58
2022/02/03 08:11:10;;;;;;;2.50;0.80;;;8.20;99.90;;;;;;5040994;28;20152;-59
2022/02/03 08:13:48;;;;;;;2.05;0.93;;;8.30;99.90;;;;;;5042391;28;20072;-60
2022/02/03 08:16:22;;;;;;;3.58;1.60;;;8.30;99.90;;;;;;5040790;28;20073;-58
2022/02/03 08:19:06;;;;;;;2.60;1.45;;;8.30;99.90;;;;;;5036351;28;20562;-58
2022/02/03 08:21:36;;;;;;;2.78;0.73;;;8.30;99.90;;;;;;5024905;28;20044;-58
2022/02/03 08:24:25;;;;;;;0.88;0.57;;;8.30;99.90;;;;;;5030010;28;20111;-56
2022/02/03 08:31:55;;;;;;;1.80;0.43;;;8.40;99.90;;;;;;5034628;28;20077;-57
2022/02/03 08:34:36;;;;;;;2.30;0.88;;;8.40;99.90;;;;;;5037444;28;20041;-57
2022/02/03 08:37:05;;;;;;;1.65;0.60;;;8.50;99.90;;;;;;5012613;28;20511;-58
2022/02/03 08:39:37;;;;;;;2.13;0.55;;;8.40;99.90;;;;;;5031286;28;20065;-59
2022/02/03 08:42:05;;;;;;;1.70;0.60;;;8.50;99.90;;;;;;5036337;28;20512;-59
2022/02/03 08:44:31;;;;;;;1.88;0.65;;;8.50;99.90;;;;;;5014324;28;20100;-61
2022/02/03 08:46:58;;;;;;;2.88;0.63;;;8.50;99.90;;;;;;5033229;28;20229;-59
2022/02/03 08:49:25;;;;;;;1.88;0.60;;;8.50;99.90;;;;;;5039519;28;20099;-58
2022/02/03 08:51:54;;;;;;;3.65;0.60;;;8.50;99.90;;;;;;5040054;28;20153;-58
2022/02/03 08:54:25;;;;;;;2.05;0.52;;;8.50;99.90;;;;;;5047802;28;20045;-59
2022/02/03 08:57:03;;;;;;;0.38;0.38;;;8.60;99.90;;;;;;5044758;28;20076;-58
2022/02/03 09:51:48;;;;;;;3.38;1.88;;;9.20;99.70;;;;;;5001211;28;20087;-56
2022/02/03 09:54:30;;;;;;;3.75;1.15;;;9.20;99.50;;;;;;5032317;28;20150;-57
2022/02/03 09:57:31;;;;;;;1.23;0.60;;;9.20;99.60;;;;;;5033427;28;20080;-57
2022/02/03 10:00:30;;;;;;;1.58;0.70;;;9.20;99.60;;;;;;5032576;28;20347;-57
2022/02/03 10:02:59;;;;;;;6.97;1.50;;;9.10;99.60;;;;;;5036061;28;20045;-59
2022/02/03 10:05:38;;;;;;;11.40;1.58;;;9.20;99.70;;;;;;5034886;28;20044;-58
2022/02/03 10:08:13;;;;;;;4.50;1.35;;;9.10;99.80;;;;;;5028561;28;20054;-56
2022/02/03 10:10:46;;;;;;;13.48;1.40;;;9.20;99.80;;;;;;5042687;28;20056;-57
2022/02/03 10:13:21;;;;;;;6.85;1.17;;;9.20;99.90;;;;;;5024970;28;20543;-55
2022/02/03 10:16:03;;;;;;;6.03;1.23;;;9.20;99.80;;;;;;5034890;28;20053;-58
2022/02/03 10:18:31;;;;;;;3.08;0.85;;;9.20;99.80;;;;;;5021176;28;20159;-57
2022/02/03 10:21:00;;;;;;;6.72;1.30;;;9.20;99.60;;;;;;5032970;28;20127;-58
2022/02/03 10:23:28;;;;;;;6.28;1.40;;;9.30;99.60;;;;;;4696059;28;9999799;-56
2022/02/03 10:26:09;;;;;;;5.45;1.38;;;9.30;99.50;;;;;;5032120;28;20045;-58
2022/02/03 10:28:38;;;;;;;2.97;0.98;;;9.30;99.10;;;;;;5021054;28;20124;-57
2022/02/03 10:31:05;;;;;;;5.88;1.13;;;9.40;99.20;;;;;;5037285;28;20042;-57
2022/02/03 10:33:34;;;;;;;4.18;1.75;;;9.40;99.40;;;;;;5024359;28;20124;-57
2022/02/03 10:36:10;;;;;;;7.03;1.10;;;9.50;99.30;;;;;;5030311;28;20057;-58
2022/02/03 10:46:55;;;;;;;12.98;1.40;;;9.70;98.80;;;;;;5036319;28;20044;-57
2022/02/03 11:08:11;;;;;;;15.65;0.93;;;10.10;97.40;;;;;;5031849;28;20049;-57
2022/02/03 11:10:36;;;;;;;3.55;0.80;;;9.90;97.10;;;;;;5014413;28;20080;-56
2022/02/03 11:13:03;;;;;;;2.67;0.90;;;10.00;97.70;;;;;;5010672;28;20507;-57
2022/02/03 11:15:31;;;;;;;4.15;1.10;;;10.00;98.00;;;;;;5039325;28;20053;-56
2022/02/03 11:17:59;;;;;;;9.35;1.30;;;10.00;97.50;;;;;;5032184;28;20186;-57
2022/02/03 11:20:29;;;;;;;3.08;0.60;;;10.00;97.50;;;;;;5028062;28;20119;-59
2022/02/03 11:57:31;;;;;;;37.28;3.70;;;10.00;96.60;;;;;;5033117;28;20448;-57
2022/02/03 12:02:51;;;;;;;7.35;1.45;;;9.90;96.60;;;;;;5037474;28;20046;-59
2022/02/03 12:05:44;;;;;;;5.03;1.13;;;10.00;96.90;;;;;;5023939;28;20049;-59
2022/02/03 12:22:11;;;;;;;25.47;2.13;;;10.40;95.60;;;;;;5023293;28;20552;-58
2022/02/03 12:25:10;;;;;;;7.93;1.45;;;10.50;96.30;;;;;;5023805;28;20116;-58
2022/02/03 12:30:25;;;;;;;17.08;2.13;;;10.50;96.10;;;;;;5019720;28;20186;-57
2022/02/03 12:36:56;;;;;;;9.65;1.77;;;10.60;96.40;;;;;;5033199;28;20484;-56
2022/02/03 12:38:35;;;;;;;10.23;1.75;;;10.70;95.40;;;;;;5031371;28;20492;-58
2022/02/03 12:41:11;;;;;;;13.52;1.63;;;10.70;95.90;;;;;;5023227;28;20080;-56
2022/02/03 12:43:41;;;;;;;3.10;1.20;;;10.70;95.10;;;;;;5027981;28;20083;-57
2022/02/03 12:46:10;;;;;;;9.90;1.65;;;10.60;94.60;;;;;;5030162;28;20061;-58
2022/02/03 12:48:37;;;;;;;9.75;1.27;;;10.60;95.40;;;;;;5040090;28;20053;-56
2022/02/03 12:51:04;;;;;;;5.93;1.30;;;10.60;95.30;;;;;;5035241;28;20572;-59
2022/02/03 12:53:33;;;;;;;5.80;1.55;;;10.50;94.50;;;;;;5024151;28;20056;-58
2022/02/03 12:56:02;;;;;;;11.02;1.55;;;10.40;95.50;;;;;;5030655;28;20073;-56
2022/02/03 12:58:36;;;;;;;5.70;1.42;;;10.50;95.60;;;;;;5027266;28;20133;-57
2022/02/03 13:01:09;;;;;;;8.25;2.33;;;10.60;95.60;;;;;;4990711;28;20107;-56
2022/02/03 13:03:40;;;;;;;6.85;1.38;;;10.70;95.40;;;;;;5028421;28;20049;-57
2022/02/03 13:06:15;;;;;;;6.20;2.03;;;10.60;94.40;;;;;;5012254;28;20098;-56
2022/02/03 13:08:47;;;;;;;7.55;1.10;;;10.60;95.00;;;;;;5029628;28;20060;-60
2022/02/03 13:14:10;;;;;;;12.70;1.88;;;10.40;94.70;;;;;;5036999;28;20453;-58
2022/02/03 13:16:37;;;;;;;2.95;1.10;;;10.40;94.80;;;;;;5036763;28;20050;-56
2022/02/03 13:19:13;;;;;;;12.57;1.30;;;10.40;95.00;;;;;;5025145;28;20048;-57
2022/02/03 13:26:53;;;;;;;2.17;1.13;;;10.50;94.90;;;;;;5028596;28;20054;-56
2022/02/03 13:29:46;;;;;;;5.60;1.23;;;10.50;95.50;;;;;;5018334;28;20057;-57
2022/02/03 13:32:20;;;;;;;5.55;1.65;;;10.50;95.00;;;;;;5032614;28;20048;-57
2022/02/03 13:37:42;;;;;;;8.50;1.30;;;10.60;94.80;;;;;;5001239;28;20048;-56
2022/02/03 13:40:18;;;;;;;1.38;1.00;;;10.60;95.50;;;;;;5044087;28;20049;-58
2022/02/03 13:42:51;;;;;;;9.82;1.35;;;10.50;94.70;;;;;;5000795;28;20057;-59
2022/02/03 13:45:21;;;;;;;5.78;1.42;;;10.60;95.50;;;;;;5044063;28;20186;-60
2022/02/03 13:47:49;;;;;;;4.88;1.23;;;10.60;94.60;;;;;;5036738;28;20064;-58
2022/02/03 13:50:25;;;;;;;6.15;0.95;;;10.60;94.70;;;;;;5025110;28;20089;-58
2022/02/03 14:15:07;;;;;;;12.20;1.40;;;10.50;95.30;;;;;;5018742;28;20083;-55
2022/02/03 14:18:11;;;;;;;7.33;1.00;;;10.60;95.10;;;;;;5043137;28;20673;-58
2022/02/03 14:20:41;;;;;;;11.75;1.80;;;10.60;95.40;;;;;;5025411;28;20325;-57
2022/02/03 14:28:21;;;;;;;9.73;3.00;;;10.60;95.30;;;;;;5036039;28;20081;-56
2022/02/03 14:30:52;;;;;;;4.45;2.05;;;10.50;95.20;;;;;;5034351;28;20049;-57
2022/02/03 14:33:28;;;;;;;6.53;1.15;;;10.50;95.20;;;;;;5016060;28;20072;-55
2022/02/03 14:36:03;;;;;;;11.20;1.65;;;10.60;95.40;;;;;;5035944;28;20045;-57
2022/02/03 14:38:34;;;;;;;11.48;1.30;;;10.50;95.50;;;;;;5030058;28;20143;-57
2022/02/03 14:41:18;;;;;;;7.22;1.10;;;10.50;95.60;;;;;;5037227;28;20459;-57
2022/02/03 14:43:45;;;;;;;7.82;1.02;;;10.40;95.60;;;;;;5033789;28;20573;-57
2022/02/03 14:46:26;;;;;;;5.72;1.13;;;10.30;95.60;;;;;;5034486;28;20049;-56
2022/02/03 14:48:53;;;;;;;10.82;1.60;;;10.30;95.90;;;;;;5028966;28;20096;-57
2022/02/03 14:51:28;;;;;;;7.20;1.20;;;10.40;96.00;;;;;;5039669;28;20049;-57
2022/02/03 14:59:08;;;;;;;3.15;0.90;;;10.40;95.90;;;;;;5023305;28;20492;-57
2022/02/03 15:01:35;;;;;;;2.13;1.27;;;10.30;95.90;;;;;;5017391;28;20045;-55
2022/02/03 15:04:04;;;;;;;5.07;1.02;;;10.30;96.00;;;;;;5038100;28;20044;-56
2022/02/03 15:06:53;;;;;;;5.70;1.58;;;10.40;96.00;;;;;;5036651;28;20121;-54
2022/02/03 15:12:22;;;;;;;2.83;1.20;;;10.40;96.10;;;;;;5033255;28;20045;-55
2022/02/03 15:14:48;;;;;;;9.43;1.10;;;10.50;95.70;;;;;;5029085;28;20057;-54
2022/02/03 15:17:15;;;;;;;5.20;1.00;;;10.50;95.70;;;;;;5015727;28;20301;-57
2022/02/03 15:19:49;;;;;;;2.83;1.02;;;10.50;95.50;;;;;;5027938;28;20049;-57
2022/02/03 15:22:15;;;;;;;3.38;1.02;;;10.50;95.40;;;;;;5029890;28;20045;-56
2022/02/03 15:24:42;;;;;;;3.25;1.52;;;10.50;95.60;;;;;;5029865;28;20049;-55
2022/02/03 15:27:10;;;;;;;7.85;0.93;;;10.50;95.60;;;;;;5035682;28;20050;-56
2022/02/03 15:29:37;;;;;;;9.35;1.77;;;10.50;95.70;;;;;;5029294;28;20072;-56
2022/02/03 15:32:04;;;;;;;2.95;1.27;;;10.50;95.70;;;;;;5036218;28;20147;-56
2022/02/03 15:34:36;;;;;;;9.25;1.90;;;10.60;95.40;;;;;;5027336;28;20041;-57
2022/02/03 15:37:12;;;;;;;9.88;1.70;;;10.60;95.70;;;;;;5010710;28;20045;-56
2022/02/03 15:39:47;;;;;;;4.80;1.15;;;10.50;95.40;;;;;;5031537;28;20091;-56
2022/02/03 15:42:17;;;;;;;4.78;1.45;;;10.50;95.50;;;;;;5030136;28;20042;-57
2022/02/03 15:44:47;;;;;;;4.30;1.58;;;10.50;95.60;;;;;;5026897;28;20056;-57
2022/02/03 15:47:24;;;;;;;5.18;1.50;;;10.50;95.60;;;;;;5040729;28;20184;-56
2022/02/03 16:17:48;;;;;;;10.35;1.40;;;10.30;96.30;;;;;;5033346;28;20069;-57
2022/02/03 16:20:20;;;;;;;8.38;2.25;;;10.30;96.20;;;;;;5031722;28;20072;-58
2022/02/03 16:50:47;;;;;;;7.05;1.48;;;10.20;96.10;;;;;;5027891;28;20515;-57
2022/02/03 16:53:14;;;;;;;7.18;1.70;;;10.20;96.10;;;;;;5019717;28;20499;-57
2022/02/03 16:55:42;;;;;;;9.63;1.63;;;10.30;96.10;;;;;;5037650;28;20053;-56
2022/02/03 16:58:10;;;;;;;8.05;1.92;;;10.30;96.00;;;;;;5009180;28;20040;-56
2022/02/03 17:00:38;;;;;;;12.23;2.88;;;10.30;96.10;;;;;;5032132;28;20045;-58
2022/02/03 17:03:04;;;;;;;8.82;2.67;;;10.30;96.10;;;;;;5034047;28;20045;-57
2022/02/03 17:05:34;;;;;;;12.18;3.22;;;10.30;96.10;;;;;;5036924;28;20045;-57
2022/02/03 17:08:01;;;;;;;13.18;3.50;;;10.30;96.00;;;;;;5005978;28;20041;-57
2022/02/03 17:10:28;;;;;;;6.18;2.20;;;10.30;96.10;;;;;;5037953;28;20056;-57
2022/02/03 17:12:55;;;;;;;10.60;2.17;;;10.30;96.00;;;;;;5031262;28;20068;-57
2022/02/03 17:15:22;;;;;;;7.40;2.25;;;10.30;95.80;;;;;;5037526;28;20498;-62
2022/02/03 17:17:52;;;;;;;14.25;3.22;;;10.30;96.00;;;;;;5014018;28;20782;-56
2022/02/03 17:20:22;;;;;;;7.78;3.28;;;10.30;96.30;;;;;;5034799;28;20053;-56
2022/02/03 17:22:51;;;;;;;14.48;5.35;;;10.30;96.30;;;;;;5017899;28;20164;-60
2022/02/03 17:25:32;;;;;;;9.48;3.17;;;10.40;96.10;;;;;;5031833;28;20140;-57
2022/02/03 17:28:30;;;;;;;4.60;2.50;;;10.30;96.10;;;;;;5028777;28;20080;-58
2022/02/03 17:31:24;;;;;;;7.35;4.20;;;10.30;96.10;;;;;;5027592;28;20054;-57
2022/02/03 18:09:09;;;;;;;11.20;2.97;;;10.20;96.20;;;;;;5040839;28;20098;-59
2022/02/03 18:11:54;;;;;;;8.65;3.10;;;10.20;96.20;;;;;;5033736;28;20053;-58
2022/02/03 18:30:18;;;;;;;8.23;2.55;;;10.10;96.30;;;;;;5032042;28;20152;-58
2022/02/03 18:33:25;;;;;;;6.95;2.50;;;10.20;96.40;;;;;;5031845;28;20079;-57
2022/02/03 18:57:21;;;;;;;5.70;2.20;;;10.10;96.90;;;;;;5039247;28;20091;-58
2022/02/03 19:00:23;;;;;;;4.57;2.55;;;10.10;97.00;;;;;;5033812;28;20128;-59
2022/02/03 19:11:57;;;;;;;6.57;2.50;;;10.00;97.30;;;;;;5034853;28;20136;-58
2022/02/03 19:21:00;;;;;;;7.43;2.40;;;10.00;97.50;;;;;;5031010;28;20512;-56
2022/02/03 20:05:31;;;;;;;8.88;3.35;;;9.70;98.20;;;;;;5027308;28;20110;-60
2022/02/03 20:08:06;;;;;;;4.63;2.53;;;9.60;98.60;;;;;;5032467;28;20088;-60
2022/02/03 20:10:43;;;;;;;8.23;2.67;;;9.60;98.40;;;;;;5011730;28;20049;-59
2022/02/03 20:13:10;;;;;;;5.13;2.70;;;9.60;98.70;;;;;;5031237;28;20156;-60
2022/02/03 20:15:39;;;;;;;5.05;2.53;;;9.70;98.40;;;;;;5012521;28;20088;-60
2022/02/03 20:18:06;;;;;;;8.07;2.58;;;9.70;98.40;;;;;;5033173;28;20042;-61
2022/02/03 20:20:34;;;;;;;4.10;2.40;;;9.70;98.70;;;;;;5012991;28;20115;-60
2022/02/03 20:23:03;;;;;;;13.85;3.83;;;9.70;98.60;;;;;;5034321;28;20120;-61
2022/02/03 20:25:30;;;;;;;6.60;2.72;;;9.60;99.20;;;;;;5031247;28;20123;-60
2022/02/03 20:27:57;;;;;;;6.18;2.80;;;9.60;98.80;;;;;;5032632;28;20049;-60
2022/02/03 20:30:24;;;;;;;6.00;2.53;;;9.70;99.20;;;;;;5034449;28;20108;-59
2022/02/03 20:32:50;;;;;;;4.95;2.65;;;9.70;99.00;;;;;;5035431;28;20543;-59
2022/02/03 20:35:17;;;;;;;6.70;3.13;;;9.60;99.40;;;;;;5035270;28;20079;-59
2022/02/03 20:37:44;;;;;;;8.98;3.38;;;9.60;99.20;;;;;;5034246;28;20057;-59
2022/02/03 20:40:11;;;;;;;8.32;2.83;;;9.60;99.60;;;;;;5033433;28;20522;-60
2022/02/03 20:42:39;;;;;;;6.22;2.80;;;9.60;99.30;;;;;;5032104;28;20103;-60
2022/02/03 20:45:06;;;;;;;10.73;3.63;;;9.50;99.50;;;;;;5033614;28;20073;-59
2022/02/03 20:47:33;;;;;;;9.02;3.70;;;9.60;99.30;;;;;;5019065;28;20176;-60
2022/02/03 20:50:00;;;;;;;8.70;5.63;;;9.60;99.60;;;;;;5026950;28;20053;-60
2022/02/03 20:52:27;;;;;;;13.30;6.28;;;9.50;99.50;;;;;;5032238;28;20144;-60
2022/02/03 20:54:54;;;;;;;3.55;2.80;;;9.50;99.50;;;;;;5035239;28;20109;-60
2022/02/03 20:57:21;;;;;;;7.97;3.58;;;9.40;99.90;;;;;;5033762;28;20107;-60
2022/02/03 21:03:06;;;;;;;8.35;3.80;;;9.40;99.70;;;;;;5037166;28;20049;-60
2022/02/03 21:05:12;;;;;;;7.85;3.75;;;9.40;99.70;;;;;;5021169;28;20718;-60
2022/02/03 21:07:41;;;;;;;4.82;3.17;;;9.40;99.80;;;;;;5034950;28;20080;-60
2022/02/03 21:10:11;;;;;;;9.02;4.55;;;9.40;99.90;;;;;;5022632;28;20151;-60
2022/02/03 21:12:38;;;;;;;14.38;5.22;;;9.40;99.90;;;;;;5022184;28;20184;-60
2022/02/03 21:15:06;;;;;;;9.00;5.10;;;9.30;99.90;;;;;;5035588;28;20523;-60
2022/02/03 21:17:33;;;;;;;7.68;4.68;;;9.30;99.90;;;;;;5037631;28;20049;-60
2022/02/03 21:20:16;;;;;;;16.35;4.40;;;9.30;99.90;;;;;;5036534;28;20045;-60
2022/02/03 21:22:43;;;;;;;7.45;3.85;;;9.30;99.90;;;;;;5035010;28;20088;-60
2022/02/03 21:27:53;;;;;;;7.78;3.55;;;9.30;99.90;;;;;;5036160;28;20095;-60
2022/02/03 21:30:21;;;;;;;6.82;3.17;;;9.30;99.90;;;;;;5035245;28;20050;-60
2022/02/03 21:32:48;;;;;;;7.53;2.70;;;9.30;99.90;;;;;;5034003;28;20119;-60
2022/02/03 21:35:16;;;;;;;9.32;3.20;;;9.30;99.90;;;;;;5019341;28;20094;-60
2022/02/03 21:37:44;;;;;;;6.55;3.00;;;9.30;99.90;;;;;;5035708;28;20479;-60
2022/02/03 21:40:15;;;;;;;5.65;2.63;;;9.20;99.90;;;;;;5000051;28;20057;-60
2022/02/03 21:42:42;;;;;;;6.05;2.42;;;9.20;99.90;;;;;;5039239;28;20111;-60
2022/02/03 21:45:09;;;;;;;9.13;2.92;;;9.20;99.90;;;;;;5009553;28;20120;-61
2022/02/03 21:47:36;;;;;;;6.32;2.63;;;9.20;99.90;;;;;;5036854;28;20123;-60
2022/02/03 21:50:06;;;;;;;9.75;2.97;;;9.20;99.90;;;;;;5026419;28;20088;-60
2022/02/03 21:52:36;;;;;;;7.65;3.33;;;9.20;99.90;;;;;;5030922;28;20072;-60
2022/02/03 21:55:05;;;;;;;8.77;2.90;;;9.20;99.90;;;;;;5031324;28;20128;-60
2022/02/03 21:57:32;;;;;;;6.20;2.53;;;9.20;99.90;;;;;;5011804;28;20208;-60
2022/02/03 21:59:59;;;;;;;6.28;3.83;;;9.30;99.90;;;;;;5037313;28;20080;-60
2022/02/03 22:02:25;;;;;;;6.82;2.90;;;9.30;99.90;;;;;;5033221;28;20065;-60
2022/02/03 22:04:53;;;;;;;7.45;3.28;;;9.30;99.90;;;;;;5034275;28;20146;-59
2022/02/03 22:07:20;;;;;;;6.05;3.22;;;9.40;99.90;;;;;;5035676;28;20049;-60
2022/02/03 22:09:48;;;;;;;10.35;3.88;;;9.30;99.90;;;;;;5034350;28;20049;-60
2022/02/03 22:12:15;;;;;;;10.90;3.53;;;9.30;99.90;;;;;;5020274;28;20124;-60
2022/02/03 22:14:42;;;;;;;8.32;3.40;;;9.30;99.90;;;;;;5033698;28;20049;-60
2022/02/03 22:17:09;;;;;;;8.43;3.65;;;9.30;99.90;;;;;;5012739;28;20084;-61
2022/02/03 22:19:39;;;;;;;11.98;3.15;;;9.30;99.90;;;;;;5030654;28;20087;-57
2022/02/03 22:22:21;;;;;;;9.70;3.97;;;9.30;99.90;;;;;;5032586;28;20091;-59
2022/02/03 22:25:13;;;;;;;10.10;3.45;;;9.30;99.90;;;;;;5033194;28;20060;-60
2022/02/03 22:44:07;;;;;;;8.15;3.13;;;9.10;99.90;;;;;;5037579;28;20096;-59
2022/02/03 22:49:05;;;;;;;8.02;3.25;;;9.10;99.90;;;;;;5036097;28;20830;-59
2022/02/03 22:51:33;;;;;;;7.15;3.53;;;9.10;99.90;;;;;;5034578;28;20064;-60
2022/02/03 22:54:00;;;;;;;8.68;3.75;;;9.10;99.90;;;;;;5042600;28;20080;-59
2022/02/03 22:56:27;;;;;;;3.20;2.13;;;9.10;99.90;;;;;;5008381;28;20109;-59
2022/02/03 23:01:44;;;;;;;12.90;3.00;;;9.10;99.90;;;;;;5022830;28;20092;-60
2022/02/03 23:04:11;;;;;;;10.85;3.03;;;9.10;99.90;;;;;;5016002;28;20044;-60
2022/02/03 23:06:40;;;;;;;12.63;2.42;;;9.20;99.90;;;;;;5036565;28;20467;-59
2022/02/03 23:09:15;;;;;;;5.95;2.38;;;9.20;99.90;;;;;;5036433;28;20152;-60
2022/02/03 23:12:06;;;;;;;13.73;1.90;;;9.20;99.90;;;;;;5020307;28;20389;-60
2022/02/03 23:15:13;;;;;;;5.80;1.40;;;9.20;99.90;;;;;;5018747;28;20155;-59
2022/02/03 23:17:39;;;;;;;7.80;2.05;;;9.20;99.90;;;;;;5038246;28;20048;-59
2022/02/03 23:20:12;;;;;;;9.43;1.85;;;9.30;99.90;;;;;;5037693;28;20045;-60
2022/02/03 23:22:41;;;;;;;5.75;1.40;;;9.30;99.90;;;;;;5040388;28;20049;-60
2022/02/03 23:25:19;;;;;;;6.63;1.65;;;9.30;99.90;;;;;;5031248;28;20072;-60
2022/02/03 23:28:09;;;;;;;6.10;2.28;;;9.40;99.90;;;;;;5023194;28;20049;-59
2022/02/03 23:30:36;;;;;;;3.75;1.70;;;9.40;99.90;;;;;;5034154;28;20687;-59
2022/02/03 23:33:03;;;;;;;10.30;1.73;;;9.30;99.90;;;;;;5033965;28;20075;-60
2022/02/03 23:35:32;;;;;;;6.03;2.05;;;9.30;99.90;;;;;;5040882;28;20069;-60
